Flight Track Log - Related Links

Times and Time Zones

All times are in EDT time to prevent confusion due to time zone crossing. See the N22WU flight status page for this flight to view local times or setup timezone preferences in your user account.

Time Position Orientation Groundspeed Altitude Reporting Facility
EDT Latitude Longitude Course Direction KTS MPH feet Rate Location/Type
Mon 08:05:07 AM 42.3117 -85.1961 235° Southwest 96 110 3,300  Level Chicago Center
Mon 08:06:09 AM 42.2831 -85.1997 185° South 101 116 4,000 452 Climbing Chicago Center
Mon 08:08:00 AM 42.2591 -85.2803 248° West  Level FlightAware Approximate
Mon 08:08:13 AM 42.2100 -85.2186 248° West 128 147 4,700  Level Chicago Center
Mon 08:09:00 AM 42.1897 -85.4866 235° Southwest  Level FlightAware Approximate
Mon 08:09:14 AM 42.1919 -85.2611 240° Southwest 131 151 5,300  Level Chicago Center
Mon 08:10:00 AM 42.1698 -85.5250 235° Southwest  Level FlightAware Approximate
Mon 08:10:16 AM 42.1783 -85.3008 245° Southwest 123 142 6,000  Level Chicago Center
Mon 08:11:18 AM 42.1583 -85.3411 236° Southwest 125 144 6,100  Climbing Chicago Center
Mon 08:12:20 AM 42.1394 -85.3908 243° Southwest 142 163 6,000 -48 Descending Chicago Center
Mon 08:13:22 AM 42.1169 -85.4539 244° Southwest 154 177 6,000  Level Chicago Center
Mon 08:14:24 AM 42.0964 -85.5053 242° Southwest 156 180 6,000  Level Chicago Center
Mon 08:15:26 AM 42.0756 -85.5564 241° Southwest 157 181 6,000  Level Chicago Center
Mon 08:16:28 AM 42.0533 -85.6061 239° Southwest 155 178 6,000  Level Chicago Center
Mon 08:17:30 AM 42.0325 -85.6567 241° Southwest 156 180 6,000  Level Chicago Center
Mon 08:18:32 AM 42.0078 -85.7200 242° Southwest 159 183 6,000  Level Chicago Center
Mon 08:19:34 AM 41.9861 -85.7706 240° Southwest 158 182 6,000 -24 Level Chicago Center
Mon 08:21:00 AM 41.9845 -85.8375 268° West  Level FlightAware Approximate
Mon 08:22:40 AM 41.9217 -85.9247 237° Southwest 160 184 5,900  Level Chicago Center
Mon 08:23:42 AM 41.8992 -85.9742 239° Southwest 157 181 6,000 48 Climbing Chicago Center
Mon 08:24:44 AM 41.8767 -86.0394 245° Southwest 160 184 6,000  Level Chicago Center
Mon 08:26:00 AM 41.8473 -86.0830 242° Southwest  Level FlightAware Approximate
Mon 08:26:48 AM 41.8303 -86.1397 242° Southwest 158 182 6,000  Level Chicago Center
Mon 08:27:50 AM 41.8067 -86.1889 237° Southwest 158 182 5,900 -290 Descending Chicago Center
Mon 08:28:00 AM 41.8361 -86.0961 237° Southwest  Level Estimated
Mon 08:28:52 AM 41.7836 -86.2422 240° Southwest 163 188 5,400  Level Chicago Center
Mon 08:29:54 AM 41.7558 -86.3064 240° Southwest 166 191 4,800 -452 Descending Chicago Center
Mon 08:31:00 AM 41.7380 -86.3540 243° Southwest  Level FlightAware Approximate
Mon 08:31:58 AM 41.7100 -86.4131 243° Southwest 166 191 4,000  Level Chicago Center
Mon 08:33:00 AM 41.6881 -86.4633 240° Southwest 159 183 4,000  Level Chicago Center
Mon 08:34:00 AM 41.6701 -86.5041 240° Southwest  Level FlightAware Approximate
Mon 08:36:07 AM 41.6256 -86.6156 239° Southwest 148 170 4,000  Level Chicago Center
Mon 08:37:09 AM 41.6061 -86.6625 241° Southwest 147 169 4,000 -355 Level Chicago Center
Mon 08:39:13 AM 41.5553 -86.7758 239° Southwest 161 185 2,900 -484 Descending Chicago Center
Mon 08:40:15 AM 41.5344 -86.8256 241° Southwest 156 180 2,500 -194 Descending Chicago Center
Mon 08:41:00 AM 41.7082 -86.3173 239° Southwest  Level Estimated
Mon 08:41:17 AM 41.5153 -86.8711 241° Southwest 150 173 2,500  Level Chicago Center
Mon 08:42:19 AM 41.4950 -86.9133 237° Southwest 142 163 2,500 -290 Level Chicago Center
Mon 08:43:21 AM 41.4783 -86.9583 244° Southwest 138 159 1,900 62 Descending Chicago Center
Mon 08:45:00 AM 41.5017 -86.8870 66° East  Level FlightAware Approximate
Mon 08:52:00 AM 41.6004 -86.5837 66° East  Level FlightAware Approximate
Mon 08:52:02 AM 41.5514 -86.9264 23° Northeast 121 139 3,100  Level Chicago Center
Mon 08:53:00 AM 41.6144 -86.5403 67° East  Level FlightAware Approximate
Mon 08:53:04 AM 41.5644 -86.8781 70° East 140 161 3,000  Level Chicago Center
Mon 08:54:00 AM 41.6309 -86.4979 62° Northeast  Level FlightAware Approximate
Mon 08:54:06 AM 41.5728 -86.8289 77° East 138 159 3,000  Level Chicago Center
Mon 08:55:00 AM 41.6475 -86.4562 62° Northeast  Level FlightAware Approximate
Mon 08:56:00 AM 41.6623 -86.4132 66° East  Level FlightAware Approximate
Mon 08:56:09 AM 41.5908 -86.7214 77° East 137 158 3,000  Level Chicago Center
Mon 08:57:11 AM 41.5981 -86.6758 78° East 135 155 3,000  Level Chicago Center
Mon 08:58:13 AM 41.6075 -86.6264 76° East 137 158 3,000  Level Chicago Center
Mon 09:00:17 AM 41.6636 -86.5831 30° Northeast 147 169 3,000  Level Chicago Center
Mon 09:02:21 AM 41.7000 -86.5172 53° Northeast 125 144 3,000  Level Chicago Center
Mon 09:03:23 AM 41.7011 -86.4781 88° East 109 125 3,000 -355 Level Chicago Center
Mon 09:05:27 AM 41.7011 -86.4017 90° East 103 119 1,900 -548 Descending Chicago Center
Mon 09:06:29 AM 41.7022 -86.3614 88° East 105 121 1,300 -387 Descending Chicago Center
Mon 09:07:31 AM 41.7050 -86.3150 85° East 106 122 1,100 -194 Descending Chicago Center

Login

Don't have an account? Register now (free) for customized features, flight alerts, and more!